createdAt,value
2023-02-06T00:00:40.440Z,18.20
2023-02-06T00:03:07.180Z,18.20
2023-02-06T00:05:34.338Z,18.20
2023-02-06T00:08:01.385Z,18.20
2023-02-06T00:10:28.092Z,18.20
2023-02-06T00:12:54.803Z,18.30
2023-02-06T00:15:21.579Z,18.20
2023-02-06T00:17:48.279Z,18.30
2023-02-06T00:20:15.016Z,18.20
2023-02-06T00:22:41.762Z,18.20
2023-02-06T00:25:08.697Z,18.20
2023-02-06T00:27:35.603Z,18.20
2023-02-06T00:30:02.732Z,18.20
2023-02-06T00:32:29.458Z,18.20
2023-02-06T00:34:56.148Z,18.20
2023-02-06T00:37:22.828Z,18.20
2023-02-06T00:39:49.507Z,18.20
2023-02-06T00:42:16.236Z,18.20
2023-02-06T00:44:42.896Z,18.20
2023-02-06T00:47:09.589Z,18.20
2023-02-06T00:49:36.294Z,18.20
2023-02-06T00:52:03.041Z,18.10
2023-02-06T00:54:29.779Z,18.20
2023-02-06T00:56:56.483Z,18.20
2023-02-06T00:59:23.495Z,18.20
2023-02-06T01:01:50.243Z,18.20
2023-02-06T01:04:17.349Z,18.20
2023-02-06T01:06:44.049Z,18.20
2023-02-06T01:09:10.734Z,18.10
2023-02-06T01:11:37.458Z,18.20
2023-02-06T01:14:04.399Z,18.10
2023-02-06T01:16:31.107Z,18.20
2023-02-06T01:18:57.792Z,18.10
2023-02-06T01:21:25.519Z,18.10
2023-02-06T01:23:54.208Z,18.10
2023-02-06T01:26:24.256Z,18.10
2023-02-06T01:28:51.250Z,18.10
2023-02-06T01:31:21.597Z,18.10
2023-02-06T01:33:51.452Z,18.10
2023-02-06T01:36:19.751Z,18.10
2023-02-06T01:38:47.982Z,18.10
2023-02-06T01:41:16.527Z,18.10
2023-02-06T01:43:46.695Z,18.10
2023-02-06T01:46:13.549Z,18.10
2023-02-06T01:48:51.523Z,18.10
2023-02-06T01:51:21.189Z,18.10
2023-02-06T01:53:52.923Z,18.10
2023-02-06T01:56:21.311Z,18.10
2023-02-06T01:58:58.747Z,18.10
2023-02-06T02:01:25.458Z,18.10
2023-02-06T02:03:56.348Z,18.10
2023-02-06T02:06:26.540Z,18.10
2023-02-06T02:08:58.332Z,18.10
2023-02-06T02:11:37.362Z,18.10
2023-02-06T02:14:07.172Z,18.00
2023-02-06T02:17:01.099Z,18.10
2023-02-06T02:19:47.848Z,18.00
2023-02-06T02:22:32.547Z,18.00
2023-02-06T02:25:11.460Z,18.10
2023-02-06T02:28:19.546Z,18.00
2023-02-06T02:31:00.985Z,18.10
2023-02-06T02:33:52.733Z,18.00
2023-02-06T02:36:34.536Z,18.00
2023-02-06T02:39:07.009Z,18.00
2023-02-06T02:41:39.529Z,18.00
2023-02-06T02:44:21.324Z,18.00
2023-02-06T02:46:52.036Z,18.00
2023-02-06T02:49:24.887Z,18.00
2023-02-06T02:51:51.873Z,18.00
2023-02-06T02:54:19.441Z,17.90
2023-02-06T02:56:46.399Z,18.00
2023-02-06T02:59:23.949Z,18.00
2023-02-06T03:01:56.039Z,18.00
2023-02-06T03:04:31.238Z,17.90
2023-02-06T03:07:06.106Z,18.00
2023-02-06T03:09:46.158Z,17.90
2023-02-06T03:12:24.648Z,17.90
2023-02-06T03:15:07.500Z,18.00
2023-02-06T03:17:44.401Z,17.90
2023-02-06T03:20:12.280Z,17.90
2023-02-06T03:22:41.260Z,17.90
2023-02-06T03:25:14.014Z,18.00
2023-02-06T03:27:43.154Z,17.90
2023-02-06T03:30:13.952Z,17.90
2023-02-06T03:32:45.857Z,17.90
2023-02-06T03:35:18.137Z,18.00
2023-02-06T03:37:46.253Z,18.00
2023-02-06T03:40:13.959Z,18.00
2023-02-06T03:42:45.595Z,17.90
2023-02-06T03:45:22.659Z,18.00
2023-02-06T03:47:51.844Z,17.90
2023-02-06T03:50:19.430Z,17.90
2023-02-06T03:52:49.850Z,18.00
2023-02-06T03:55:24.168Z,17.90
2023-02-06T03:57:58.703Z,18.00
2023-02-06T04:00:26.157Z,17.90
2023-02-06T04:02:55.431Z,17.90
2023-02-06T04:05:22.259Z,17.90
2023-02-06T04:07:49.094Z,17.90
2023-02-06T04:10:15.983Z,17.90
2023-02-06T04:12:42.673Z,17.90
2023-02-06T04:15:09.952Z,17.90
2023-02-06T04:17:57.913Z,17.90
2023-02-06T04:20:23.761Z,17.90
2023-02-06T04:22:50.542Z,17.90
2023-02-06T04:25:17.339Z,17.90
2023-02-06T04:27:44.060Z,17.90
2023-02-06T04:30:11.392Z,17.90
2023-02-06T04:32:38.136Z,17.90
2023-02-06T04:35:05.621Z,17.90
2023-02-06T04:37:33.020Z,17.90
2023-02-06T04:39:59.697Z,17.90
2023-02-06T04:42:26.444Z,17.90
2023-02-06T04:44:53.108Z,17.90
2023-02-06T04:47:19.788Z,17.90
2023-02-06T04:49:46.477Z,18.00
2023-02-06T04:52:13.135Z,18.00
2023-02-06T04:54:39.834Z,18.00
2023-02-06T04:57:06.548Z,17.90
2023-02-06T04:59:33.272Z,18.00
2023-02-06T05:01:59.945Z,18.00
2023-02-06T05:04:26.740Z,18.00
2023-02-06T05:06:53.464Z,18.00
2023-02-06T05:09:20.266Z,18.00
2023-02-06T05:11:46.986Z,18.00
2023-02-06T05:14:13.641Z,18.00
2023-02-06T05:16:40.376Z,18.00
2023-02-06T05:19:07.099Z,18.00
2023-02-06T05:21:33.823Z,18.00
2023-02-06T05:24:00.537Z,18.00
2023-02-06T05:26:27.248Z,18.00
2023-02-06T05:28:53.920Z,18.00
2023-02-06T05:31:20.823Z,18.00
2023-02-06T05:33:52.565Z,18.00
2023-02-06T05:36:20.766Z,18.00
2023-02-06T05:38:48.497Z,18.00
2023-02-06T05:41:16.084Z,18.00
2023-02-06T05:43:43.140Z,18.00
2023-02-06T05:46:11.199Z,18.00
2023-02-06T05:48:38.500Z,18.00
2023-02-06T05:51:05.537Z,17.90
2023-02-06T05:53:32.360Z,17.90
2023-02-06T05:55:59.243Z,18.00
2023-02-06T05:58:26.072Z,18.00
2023-02-06T06:00:52.818Z,18.00
2023-02-06T06:03:19.515Z,18.00
2023-02-06T06:05:46.467Z,18.10
2023-02-06T06:08:13.184Z,18.10
2023-02-06T06:10:40.077Z,18.10
2023-02-06T06:13:07.038Z,18.10
2023-02-06T06:15:33.974Z,18.10
2023-02-06T06:18:00.893Z,18.20
2023-02-06T06:20:27.682Z,18.20
2023-02-06T06:22:54.343Z,18.20
2023-02-06T06:25:21.171Z,18.20
2023-02-06T06:27:47.997Z,18.20
2023-02-06T06:30:14.845Z,18.20
2023-02-06T06:32:41.518Z,18.30
2023-02-06T06:35:09.016Z,18.20
2023-02-06T06:37:35.743Z,18.30
2023-02-06T06:40:02.627Z,18.30
2023-02-06T06:42:29.363Z,18.30
2023-02-06T06:44:56.054Z,18.30
2023-02-06T06:47:22.729Z,18.30
2023-02-06T06:49:49.543Z,18.30
2023-02-06T06:52:24.852Z,18.30
2023-02-06T06:54:52.979Z,18.40
2023-02-06T06:57:20.747Z,18.40
2023-02-06T06:59:47.687Z,18.40
2023-02-06T07:02:15.015Z,18.40
2023-02-06T07:04:42.047Z,18.40
2023-02-06T07:07:09.087Z,18.40
2023-02-06T07:09:35.760Z,18.40
2023-02-06T07:12:02.664Z,18.40
2023-02-06T07:14:29.412Z,18.40
2023-02-06T07:16:56.337Z,18.40
2023-02-06T07:19:23.178Z,18.40
2023-02-06T07:21:49.915Z,18.40
2023-02-06T07:24:16.796Z,18.40
2023-02-06T07:26:43.528Z,18.50
2023-02-06T07:29:10.381Z,18.50
2023-02-06T07:31:37.225Z,18.50
2023-02-06T07:34:04.054Z,18.50
2023-02-06T07:36:30.904Z,18.50
2023-02-06T07:38:57.798Z,18.50
2023-02-06T07:41:24.642Z,18.50
2023-02-06T07:43:51.308Z,18.50
2023-02-06T07:46:18.224Z,18.60
2023-02-06T07:48:44.985Z,18.60
2023-02-06T07:51:11.777Z,18.60
2023-02-06T07:53:38.840Z,18.60
2023-02-06T07:56:17.893Z,18.60
2023-02-06T07:58:44.888Z,18.70
2023-02-06T08:01:11.614Z,18.70
2023-02-06T08:03:38.588Z,18.70
2023-02-06T08:06:24.650Z,18.70
2023-02-06T08:08:54.086Z,18.80
2023-02-06T08:11:21.571Z,18.70
2023-02-06T08:13:48.919Z,18.70
2023-02-06T08:16:18.265Z,18.80
2023-02-06T08:18:45.724Z,18.80
2023-02-06T08:21:15.948Z,18.80
2023-02-06T08:23:42.923Z,18.80
2023-02-06T08:26:18.502Z,18.80
2023-02-06T08:28:47.053Z,18.80
2023-02-06T08:31:23.465Z,18.80
2023-02-06T08:33:50.751Z,18.80
2023-02-06T08:36:20.489Z,18.80
2023-02-06T08:38:47.911Z,18.80
2023-02-06T08:41:18.233Z,18.80
2023-02-06T08:43:49.498Z,18.80
2023-02-06T08:46:17.802Z,18.80
2023-02-06T08:48:45.047Z,18.90
2023-02-06T08:51:12.548Z,18.90
2023-02-06T08:53:39.934Z,18.90
2023-02-06T08:56:09.090Z,18.90
2023-02-06T08:58:37.139Z,18.90
2023-02-06T09:01:16.711Z,18.90
2023-02-06T09:03:46.173Z,18.90
2023-02-06T09:06:14.229Z,18.90
2023-02-06T09:08:42.418Z,18.90
2023-02-06T09:11:15.635Z,19.00
2023-02-06T09:13:44.002Z,19.00
2023-02-06T09:16:11.846Z,19.00
2023-02-06T09:18:38.790Z,19.00
2023-02-06T09:21:05.637Z,19.00
2023-02-06T09:23:32.425Z,19.00
2023-02-06T09:25:59.151Z,19.00
2023-02-06T09:28:25.879Z,19.00
2023-02-06T09:30:52.832Z,19.00
2023-02-06T09:33:19.688Z,19.00
2023-02-06T09:35:46.349Z,19.00
2023-02-06T09:38:13.144Z,19.10
2023-02-06T09:40:39.865Z,19.10
2023-02-06T09:43:06.771Z,19.10
2023-02-06T09:45:33.828Z,19.10
2023-02-06T09:48:22.246Z,19.10
2023-02-06T09:51:22.788Z,19.10
2023-02-06T09:54:05.870Z,19.10
2023-02-06T09:56:32.549Z,19.10
2023-02-06T09:59:08.554Z,19.10
2023-02-06T10:01:41.844Z,19.10
2023-02-06T10:04:29.519Z,19.10
2023-02-06T10:07:23.480Z,19.10
2023-02-06T10:09:56.184Z,19.20
2023-02-06T10:12:25.819Z,19.20
2023-02-06T10:15:31.514Z,19.30
2023-02-06T10:18:05.933Z,19.30
2023-02-06T10:20:37.570Z,19.30
2023-02-06T10:23:32.757Z,19.30
2023-02-06T10:26:19.441Z,19.40
2023-02-06T10:28:56.007Z,19.40
2023-02-06T10:31:25.665Z,19.40
2023-02-06T10:33:55.448Z,19.40
2023-02-06T10:36:27.889Z,19.40
2023-02-06T10:39:21.022Z,19.40
2023-02-06T10:42:09.042Z,19.40
2023-02-06T10:44:58.132Z,19.40
2023-02-06T10:47:32.353Z,19.40
2023-02-06T10:50:37.592Z,19.40
2023-02-06T10:53:12.508Z,19.40
2023-02-06T10:55:49.274Z,19.40
2023-02-06T10:58:25.404Z,19.40
2023-02-06T11:00:53.786Z,19.40
2023-02-06T11:03:24.424Z,19.40
2023-02-06T11:05:52.494Z,19.50
2023-02-06T11:08:28.315Z,19.50
2023-02-06T11:10:55.577Z,19.50
2023-02-06T11:13:35.210Z,19.50
2023-02-06T11:16:05.922Z,19.50
2023-02-06T11:18:39.142Z,19.50
2023-02-06T11:21:08.685Z,19.50
2023-02-06T11:23:35.933Z,19.50
2023-02-06T11:26:15.137Z,19.50
2023-02-06T11:28:54.629Z,19.50
2023-02-06T11:31:39.496Z,19.50
2023-02-06T11:34:06.584Z,19.50
2023-02-06T11:36:36.494Z,19.50
2023-02-06T11:39:30.249Z,19.50
2023-02-06T11:42:13.859Z,19.50
2023-02-06T11:44:42.790Z,19.50
2023-02-06T11:47:33.109Z,19.50
2023-02-06T11:50:14.985Z,19.50
2023-02-06T11:52:46.728Z,19.50
2023-02-06T11:55:25.937Z,19.50
2023-02-06T11:58:14.298Z,19.50
2023-02-06T12:01:02.571Z,19.50
2023-02-06T12:03:38.795Z,19.50
2023-02-06T12:06:23.165Z,19.50
2023-02-06T12:08:58.295Z,19.50
2023-02-06T12:11:37.517Z,19.50
2023-02-06T12:14:13.098Z,19.50
2023-02-06T12:16:43.158Z,19.40
2023-02-06T12:19:26.512Z,19.50
2023-02-06T12:22:13.558Z,19.50
2023-02-06T12:24:48.428Z,19.40
2023-02-06T12:27:31.802Z,19.40
2023-02-06T12:30:06.268Z,19.40
2023-02-06T12:32:38.643Z,19.40
2023-02-06T12:35:53.483Z,19.40
2023-02-06T12:38:35.021Z,19.40
2023-02-06T12:41:19.295Z,19.40
2023-02-06T12:43:52.879Z,19.40
2023-02-06T12:46:23.869Z,19.40
2023-02-06T12:49:09.349Z,19.40
2023-02-06T12:51:53.405Z,19.40
2023-02-06T12:54:25.839Z,19.30
2023-02-06T12:57:02.049Z,19.40
2023-02-06T12:59:31.409Z,19.30
2023-02-06T13:02:19.170Z,19.30
2023-02-06T13:04:47.161Z,19.30
2023-02-06T13:07:17.954Z,19.30
2023-02-06T13:10:14.359Z,19.30
2023-02-06T13:12:41.074Z,19.30
2023-02-06T13:15:20.198Z,19.30
2023-02-06T13:17:46.951Z,19.20
2023-02-06T13:20:19.568Z,19.20
2023-02-06T13:23:17.057Z,19.30
2023-02-06T13:25:43.682Z,19.30
2023-02-06T13:28:22.665Z,19.20
2023-02-06T13:30:56.689Z,19.20
2023-02-06T13:33:25.393Z,19.20
2023-02-06T13:36:02.277Z,19.20
2023-02-06T13:38:35.077Z,19.20
2023-02-06T13:41:14.214Z,19.20
2023-02-06T13:44:17.907Z,19.20
2023-02-06T13:47:15.605Z,19.20
2023-02-06T13:50:08.620Z,19.20
2023-02-06T13:52:52.856Z,19.20
2023-02-06T13:55:25.474Z,19.20
2023-02-06T13:58:23.976Z,19.20
2023-02-06T14:00:52.638Z,19.20
2023-02-06T14:03:28.921Z,19.20
2023-02-06T14:06:22.310Z,19.20
2023-02-06T14:09:07.165Z,19.20
2023-02-06T14:12:06.907Z,19.20
2023-02-06T14:14:43.841Z,19.10
2023-02-06T14:17:56.132Z,19.10
2023-02-06T14:20:33.299Z,19.10
2023-02-06T14:23:05.848Z,19.10
2023-02-06T14:26:07.010Z,19.10
2023-02-06T14:28:49.714Z,19.10
2023-02-06T14:31:40.844Z,19.10
2023-02-06T14:34:35.194Z,19.10
2023-02-06T14:37:20.568Z,19.10
2023-02-06T14:39:55.403Z,19.10
2023-02-06T14:42:27.793Z,19.00
2023-02-06T14:45:01.169Z,19.00
2023-02-06T14:47:42.166Z,19.00
2023-02-06T14:50:24.204Z,19.00
2023-02-06T14:52:59.154Z,19.00
2023-02-06T14:55:52.637Z,19.00
2023-02-06T14:58:24.744Z,19.00
2023-02-06T15:00:54.361Z,19.00
2023-02-06T15:03:26.446Z,19.00
2023-02-06T15:06:05.524Z,19.00
2023-02-06T15:08:33.570Z,19.00
2023-02-06T15:11:03.415Z,19.00
2023-02-06T15:13:34.973Z,19.00
2023-02-06T15:16:09.569Z,19.00
2023-02-06T15:18:36.932Z,19.00
2023-02-06T15:21:06.331Z,19.00
2023-02-06T15:23:42.065Z,19.00
2023-02-06T15:26:33.069Z,18.90
2023-02-06T15:29:01.830Z,19.00
2023-02-06T15:31:29.777Z,19.00
2023-02-06T15:34:01.085Z,18.90
2023-02-06T15:36:37.947Z,18.90
2023-02-06T15:39:07.975Z,18.90
2023-02-06T15:41:35.838Z,18.90
2023-02-06T15:44:21.425Z,18.90
2023-02-06T15:46:49.717Z,18.90
2023-02-06T15:49:31.926Z,18.90
2023-02-06T15:51:58.757Z,18.90
2023-02-06T15:54:27.211Z,18.90
2023-02-06T15:57:01.607Z,18.90
2023-02-06T15:59:29.183Z,18.90
2023-02-06T16:01:58.041Z,18.90
2023-02-06T16:04:30.338Z,18.80
2023-02-06T16:07:14.453Z,18.90
2023-02-06T16:09:46.598Z,18.80
2023-02-06T16:12:14.070Z,18.80
2023-02-06T16:14:51.041Z,18.80
2023-02-06T16:17:26.629Z,18.80
2023-02-06T16:20:02.884Z,18.80
2023-02-06T16:22:31.542Z,18.80
2023-02-06T16:25:13.650Z,18.80
2023-02-06T16:27:45.897Z,18.80
2023-02-06T16:30:23.726Z,18.80
2023-02-06T16:32:51.434Z,18.80
2023-02-06T16:35:18.183Z,18.80
2023-02-06T16:37:45.388Z,18.80
2023-02-06T16:40:12.310Z,18.80
2023-02-06T16:42:47.699Z,18.80
2023-02-06T16:45:27.893Z,18.80
2023-02-06T16:47:55.441Z,18.80
2023-02-06T16:50:22.662Z,18.80
2023-02-06T16:52:54.189Z,18.80
2023-02-06T16:55:23.642Z,18.90
2023-02-06T16:57:54.954Z,18.90
2023-02-06T17:00:23.242Z,18.90
2023-02-06T17:02:52.030Z,19.00
2023-02-06T17:05:20.073Z,19.00
2023-02-06T17:07:50.900Z,19.00
2023-02-06T17:10:24.865Z,19.10
2023-02-06T17:12:52.038Z,19.10
2023-02-06T17:15:19.561Z,19.10
2023-02-06T17:17:46.516Z,19.20
2023-02-06T17:20:38.919Z,19.20
2023-02-06T17:23:06.182Z,19.20
2023-02-06T17:25:33.096Z,19.20
2023-02-06T17:28:01.376Z,19.20
2023-02-06T17:30:28.300Z,19.30
2023-02-06T17:32:55.220Z,19.30
2023-02-06T17:35:21.938Z,19.30
2023-02-06T17:37:49.285Z,19.30
2023-02-06T17:40:23.639Z,19.40
2023-02-06T17:42:50.757Z,19.40
2023-02-06T17:45:17.858Z,19.40
2023-02-06T17:47:44.793Z,19.40
2023-02-06T17:50:15.872Z,19.40
2023-02-06T17:52:42.571Z,19.40
2023-02-06T17:55:10.340Z,19.50
2023-02-06T17:57:38.127Z,19.50
2023-02-06T18:00:06.722Z,19.50
2023-02-06T18:02:33.822Z,19.50
2023-02-06T18:05:00.679Z,19.50
2023-02-06T18:07:27.768Z,19.50
2023-02-06T18:09:54.515Z,19.50
2023-02-06T18:12:21.371Z,19.60
2023-02-06T18:14:49.947Z,19.60
2023-02-06T18:17:18.437Z,19.60
2023-02-06T18:19:46.575Z,19.60
2023-02-06T18:22:15.954Z,19.60
2023-02-06T18:24:42.808Z,19.60
2023-02-06T18:27:10.582Z,19.50
2023-02-06T18:29:49.850Z,19.50
2023-02-06T18:32:18.098Z,19.60
2023-02-06T18:34:44.962Z,19.50
2023-02-06T18:37:11.661Z,19.50
2023-02-06T18:39:39.226Z,19.60
2023-02-06T18:42:24.323Z,19.60
2023-02-06T18:44:51.029Z,19.50
2023-02-06T18:47:18.779Z,19.60
2023-02-06T18:49:45.589Z,19.50
2023-02-06T18:52:12.770Z,19.50
2023-02-06T18:54:39.698Z,19.60
2023-02-06T18:57:06.690Z,19.60
2023-02-06T18:59:33.640Z,19.60
2023-02-06T19:02:00.499Z,19.60
2023-02-06T19:04:27.356Z,19.60
2023-02-06T19:06:54.195Z,19.60
2023-02-06T19:09:21.007Z,19.60
2023-02-06T19:11:48.685Z,19.60
2023-02-06T19:14:17.524Z,19.60
2023-02-06T19:16:47.352Z,19.60
2023-02-06T19:19:14.721Z,19.60
2023-02-06T19:21:42.055Z,19.60
2023-02-06T19:24:12.623Z,19.60
2023-02-06T19:26:39.545Z,19.60
2023-02-06T19:29:06.679Z,19.60
2023-02-06T19:31:34.928Z,19.50
2023-02-06T19:34:02.364Z,19.60
2023-02-06T19:36:30.201Z,19.60
2023-02-06T19:38:59.879Z,19.50
2023-02-06T19:41:29.128Z,19.60
2023-02-06T19:43:58.087Z,19.60
2023-02-06T19:46:26.641Z,19.60
2023-02-06T19:48:54.718Z,19.50
2023-02-06T19:51:33.187Z,19.50
2023-02-06T19:54:00.389Z,19.60
2023-02-06T19:56:30.910Z,19.50
2023-02-06T19:58:59.684Z,19.50
2023-02-06T20:01:29.512Z,19.50
2023-02-06T20:03:58.189Z,19.50
2023-02-06T20:06:25.351Z,19.50
2023-02-06T20:08:52.064Z,19.50
2023-02-06T20:11:21.493Z,19.50
2023-02-06T20:13:51.944Z,19.50
2023-02-06T20:16:28.088Z,19.50
2023-02-06T20:18:56.295Z,19.50
2023-02-06T20:21:26.743Z,19.50
2023-02-06T20:23:58.510Z,19.50
2023-02-06T20:26:27.677Z,19.50
2023-02-06T20:28:55.059Z,19.50
2023-02-06T20:31:22.265Z,19.50
2023-02-06T20:33:49.388Z,19.50
2023-02-06T20:36:18.736Z,19.50
2023-02-06T20:38:50.135Z,19.50
2023-02-06T20:41:17.642Z,19.50
2023-02-06T20:43:47.771Z,19.50
2023-02-06T20:46:17.282Z,19.50
2023-02-06T20:48:45.847Z,19.50
2023-02-06T20:51:13.829Z,19.50
2023-02-06T20:53:41.068Z,19.50
2023-02-06T20:56:12.405Z,19.50
2023-02-06T20:58:39.225Z,19.50
2023-02-06T21:01:17.166Z,19.50
2023-02-06T21:03:45.623Z,19.50
2023-02-06T21:06:13.163Z,19.40
2023-02-06T21:08:40.676Z,19.40
2023-02-06T21:11:07.400Z,19.40
2023-02-06T21:13:34.382Z,19.40
2023-02-06T21:16:01.326Z,19.40
2023-02-06T21:18:30.294Z,19.40
2023-02-06T21:21:06.682Z,19.40
2023-02-06T21:23:33.711Z,19.40
2023-02-06T21:26:00.551Z,19.40
2023-02-06T21:28:27.599Z,19.40
2023-02-06T21:31:02.704Z,19.40
2023-02-06T21:33:29.810Z,19.40
2023-02-06T21:35:56.498Z,19.40
2023-02-06T21:38:24.615Z,19.40
2023-02-06T21:40:51.465Z,19.40
2023-02-06T21:43:18.376Z,19.40
2023-02-06T21:45:47.557Z,19.40
2023-02-06T21:48:14.499Z,19.40
2023-02-06T21:50:41.489Z,19.40
2023-02-06T21:53:09.569Z,19.40
2023-02-06T21:55:42.153Z,19.40
2023-02-06T21:58:09.459Z,19.40
2023-02-06T22:00:36.407Z,19.30
2023-02-06T22:03:03.471Z,19.30
2023-02-06T22:05:30.222Z,19.30
2023-02-06T22:07:58.692Z,19.20
2023-02-06T22:10:25.437Z,19.20
2023-02-06T22:12:52.192Z,19.20
2023-02-06T22:15:19.084Z,19.20
2023-02-06T22:17:45.795Z,19.10
2023-02-06T22:20:14.273Z,19.10
2023-02-06T22:22:42.102Z,19.10
2023-02-06T22:25:11.200Z,19.00
2023-02-06T22:27:38.300Z,19.00
2023-02-06T22:30:06.149Z,19.00
2023-02-06T22:32:36.945Z,19.00
2023-02-06T22:35:05.845Z,19.00
2023-02-06T22:37:33.617Z,18.90
2023-02-06T22:40:00.326Z,18.90
2023-02-06T22:42:27.192Z,18.90
2023-02-06T22:44:53.950Z,18.80
2023-02-06T22:47:20.699Z,18.80
2023-02-06T22:49:51.460Z,18.80
2023-02-06T22:52:37.009Z,18.80
2023-02-06T22:55:05.690Z,18.70
2023-02-06T22:57:35.179Z,18.70
2023-02-06T23:00:01.982Z,18.70
2023-02-06T23:02:28.730Z,18.70
2023-02-06T23:04:55.421Z,18.60
2023-02-06T23:07:22.204Z,18.60
2023-02-06T23:09:48.972Z,18.60
2023-02-06T23:12:16.255Z,18.60
2023-02-06T23:14:43.146Z,18.60
2023-02-06T23:17:10.370Z,18.60
2023-02-06T23:19:37.834Z,18.60
2023-02-06T23:22:04.500Z,18.60
2023-02-06T23:24:31.857Z,18.60
2023-02-06T23:26:58.618Z,18.60
2023-02-06T23:29:25.294Z,18.60
2023-02-06T23:31:52.771Z,18.50
2023-02-06T23:34:20.068Z,18.50
2023-02-06T23:36:47.317Z,18.50
2023-02-06T23:39:14.144Z,18.50
2023-02-06T23:41:40.932Z,18.50
2023-02-06T23:44:08.363Z,18.50
2023-02-06T23:46:37.840Z,18.50
2023-02-06T23:49:06.373Z,18.40
2023-02-06T23:51:33.390Z,18.40
2023-02-06T23:54:00.530Z,18.40
2023-02-06T23:56:29.955Z,18.40
2023-02-06T23:58:58.159Z,18.40
